sensor_id;sensor_type;location;lat;lon;timestamp;temperature;humidity
76263;DHT22;65080;50.908;6.916;2023-07-31T00:01:17;18.40;85.10
76263;DHT22;65080;50.908;6.916;2023-07-31T00:03:46;18.50;84.80
76263;DHT22;65080;50.908;6.916;2023-07-31T00:06:14;18.50;84.70
76263;DHT22;65080;50.908;6.916;2023-07-31T00:08:42;18.40;85.30
76263;DHT22;65080;50.908;6.916;2023-07-31T00:11:11;18.50;84.60
76263;DHT22;65080;50.908;6.916;2023-07-31T00:13:39;18.50;84.50
76263;DHT22;65080;50.908;6.916;2023-07-31T00:16:07;18.50;84.40
76263;DHT22;65080;50.908;6.916;2023-07-31T00:18:37;18.50;84.30
76263;DHT22;65080;50.908;6.916;2023-07-31T00:21:05;18.50;84.40
76263;DHT22;65080;50.908;6.916;2023-07-31T00:23:34;18.50;84.30
76263;DHT22;65080;50.908;6.916;2023-07-31T00:26:02;18.50;84.40
76263;DHT22;65080;50.908;6.916;2023-07-31T00:28:30;18.50;84.30
76263;DHT22;65080;50.908;6.916;2023-07-31T00:30:59;18.60;84.30
76263;DHT22;65080;50.908;6.916;2023-07-31T00:33:27;18.50;84.30
76263;DHT22;65080;50.908;6.916;2023-07-31T00:35:56;18.60;84.30
76263;DHT22;65080;50.908;6.916;2023-07-31T00:38:25;18.60;84.30
76263;DHT22;65080;50.908;6.916;2023-07-31T00:40:53;18.60;84.10
76263;DHT22;65080;50.908;6.916;2023-07-31T00:43:21;18.60;83.70
76263;DHT22;65080;50.908;6.916;2023-07-31T00:45:50;18.60;84.00
76263;DHT22;65080;50.908;6.916;2023-07-31T00:48:18;18.60;83.00
76263;DHT22;65080;50.908;6.916;2023-07-31T00:50:46;18.70;82.80
76263;DHT22;65080;50.908;6.916;2023-07-31T00:53:16;18.70;82.50
76263;DHT22;65080;50.908;6.916;2023-07-31T00:55:45;18.70;82.40
76263;DHT22;65080;50.908;6.916;2023-07-31T00:58:13;18.70;82.20
76263;DHT22;65080;50.908;6.916;2023-07-31T01:00:41;18.70;81.90
76263;DHT22;65080;50.908;6.916;2023-07-31T01:03:11;18.70;81.90
76263;DHT22;65080;50.908;6.916;2023-07-31T01:05:56;18.70;81.80
76263;DHT22;65080;50.908;6.916;2023-07-31T01:08:35;18.70;81.60
76263;DHT22;65080;50.908;6.916;2023-07-31T01:11:14;18.80;81.50
76263;DHT22;65080;50.908;6.916;2023-07-31T01:13:44;18.70;81.20
76263;DHT22;65080;50.908;6.916;2023-07-31T01:16:12;18.70;81.00
76263;DHT22;65080;50.908;6.916;2023-07-31T01:18:41;18.70;80.80
76263;DHT22;65080;50.908;6.916;2023-07-31T01:21:21;18.70;80.70
76263;DHT22;65080;50.908;6.916;2023-07-31T01:24:13;18.70;80.40
76263;DHT22;65080;50.908;6.916;2023-07-31T01:26:53;18.80;80.30
76263;DHT22;65080;50.908;6.916;2023-07-31T01:29:29;18.80;80.10
76263;DHT22;65080;50.908;6.916;2023-07-31T01:32:02;18.80;79.90
76263;DHT22;65080;50.908;6.916;2023-07-31T01:34:31;18.80;79.80
76263;DHT22;65080;50.908;6.916;2023-07-31T01:37:00;18.80;79.60
76263;DHT22;65080;50.908;6.916;2023-07-31T01:39:28;18.80;79.70
76263;DHT22;65080;50.908;6.916;2023-07-31T01:41:58;18.80;79.40
76263;DHT22;65080;50.908;6.916;2023-07-31T01:44:26;18.90;79.50
76263;DHT22;65080;50.908;6.916;2023-07-31T01:46:55;18.90;79.40
76263;DHT22;65080;50.908;6.916;2023-07-31T01:49:23;18.90;79.30
76263;DHT22;65080;50.908;6.916;2023-07-31T01:51:51;18.90;79.20
76263;DHT22;65080;50.908;6.916;2023-07-31T01:54:20;18.90;79.10
76263;DHT22;65080;50.908;6.916;2023-07-31T01:56:48;18.90;79.10
76263;DHT22;65080;50.908;6.916;2023-07-31T01:59:18;18.90;79.10
76263;DHT22;65080;50.908;6.916;2023-07-31T02:01:46;18.90;79.10
76263;DHT22;65080;50.908;6.916;2023-07-31T02:04:14;18.90;79.10
76263;DHT22;65080;50.908;6.916;2023-07-31T02:06:43;19.00;79.20
76263;DHT22;65080;50.908;6.916;2023-07-31T02:09:12;19.00;78.90
76263;DHT22;65080;50.908;6.916;2023-07-31T02:11:40;19.00;78.70
76263;DHT22;65080;50.908;6.916;2023-07-31T02:14:08;19.00;78.70
76263;DHT22;65080;50.908;6.916;2023-07-31T02:16:37;19.00;78.60
76263;DHT22;65080;50.908;6.916;2023-07-31T02:19:06;19.00;78.40
76263;DHT22;65080;50.908;6.916;2023-07-31T02:21:34;19.00;78.30
76263;DHT22;65080;50.908;6.916;2023-07-31T02:24:03;19.10;78.10
76263;DHT22;65080;50.908;6.916;2023-07-31T02:26:31;19.10;77.90
76263;DHT22;65080;50.908;6.916;2023-07-31T02:28:59;19.10;77.80
76263;DHT22;65080;50.908;6.916;2023-07-31T02:31:28;19.10;77.80
76263;DHT22;65080;50.908;6.916;2023-07-31T02:33:57;19.10;77.50
76263;DHT22;65080;50.908;6.916;2023-07-31T02:36:26;19.10;77.40
76263;DHT22;65080;50.908;6.916;2023-07-31T02:38:54;19.10;77.10
76263;DHT22;65080;50.908;6.916;2023-07-31T02:41:22;19.10;77.00
76263;DHT22;65080;50.908;6.916;2023-07-31T02:43:51;19.20;77.00
76263;DHT22;65080;50.908;6.916;2023-07-31T02:46:20;19.20;76.90
76263;DHT22;65080;50.908;6.916;2023-07-31T02:48:51;19.30;76.80
76263;DHT22;65080;50.908;6.916;2023-07-31T02:51:21;19.30;76.70
76263;DHT22;65080;50.908;6.916;2023-07-31T02:53:49;19.30;76.60
76263;DHT22;65080;50.908;6.916;2023-07-31T02:56:18;19.30;76.40
76263;DHT22;65080;50.908;6.916;2023-07-31T02:58:46;19.30;76.20
76263;DHT22;65080;50.908;6.916;2023-07-31T03:01:14;19.30;76.30
76263;DHT22;65080;50.908;6.916;2023-07-31T03:03:42;19.40;76.20
76263;DHT22;65080;50.908;6.916;2023-07-31T03:06:11;19.30;76.00
76263;DHT22;65080;50.908;6.916;2023-07-31T03:08:40;19.30;76.10
76263;DHT22;65080;50.908;6.916;2023-07-31T03:11:09;19.30;76.10
76263;DHT22;65080;50.908;6.916;2023-07-31T03:13:37;19.40;76.20
76263;DHT22;65080;50.908;6.916;2023-07-31T03:16:05;19.40;76.00
76263;DHT22;65080;50.908;6.916;2023-07-31T03:18:34;19.40;75.90
76263;DHT22;65080;50.908;6.916;2023-07-31T03:21:02;19.40;75.80
76263;DHT22;65080;50.908;6.916;2023-07-31T03:23:30;19.40;75.70
76263;DHT22;65080;50.908;6.916;2023-07-31T03:26:01;19.30;75.60
76263;DHT22;65080;50.908;6.916;2023-07-31T03:28:30;19.40;75.70
76263;DHT22;65080;50.908;6.916;2023-07-31T03:30:58;19.40;75.60
76263;DHT22;65080;50.908;6.916;2023-07-31T03:33:26;19.40;75.60
76263;DHT22;65080;50.908;6.916;2023-07-31T03:35:55;19.40;75.50
76263;DHT22;65080;50.908;6.916;2023-07-31T03:38:23;19.40;75.70
76263;DHT22;65080;50.908;6.916;2023-07-31T03:40:51;19.40;75.60
76263;DHT22;65080;50.908;6.916;2023-07-31T03:43:21;19.40;75.40
76263;DHT22;65080;50.908;6.916;2023-07-31T03:45:49;19.40;75.30
76263;DHT22;65080;50.908;6.916;2023-07-31T03:48:18;19.40;75.30
76263;DHT22;65080;50.908;6.916;2023-07-31T03:50:46;19.40;75.60
76263;DHT22;65080;50.908;6.916;2023-07-31T03:53:14;19.40;75.70
76263;DHT22;65080;50.908;6.916;2023-07-31T03:55:43;19.40;76.00
76263;DHT22;65080;50.908;6.916;2023-07-31T03:58:11;19.30;76.20
76263;DHT22;65080;50.908;6.916;2023-07-31T04:00:41;19.30;76.50
76263;DHT22;65080;50.908;6.916;2023-07-31T04:03:09;19.40;76.80
76263;DHT22;65080;50.908;6.916;2023-07-31T04:05:38;19.30;76.90
76263;DHT22;65080;50.908;6.916;2023-07-31T04:08:07;19.30;77.00
76263;DHT22;65080;50.908;6.916;2023-07-31T04:10:36;19.30;77.10
76263;DHT22;65080;50.908;6.916;2023-07-31T04:13:04;19.30;77.10
76263;DHT22;65080;50.908;6.916;2023-07-31T04:15:32;19.30;77.30
76263;DHT22;65080;50.908;6.916;2023-07-31T04:18:02;19.30;77.40
76263;DHT22;65080;50.908;6.916;2023-07-31T04:20:30;19.30;77.50
76263;DHT22;65080;50.908;6.916;2023-07-31T04:22:59;19.40;77.70
76263;DHT22;65080;50.908;6.916;2023-07-31T04:25:27;19.40;77.70
76263;DHT22;65080;50.908;6.916;2023-07-31T04:27:55;19.50;77.40
76263;DHT22;65080;50.908;6.916;2023-07-31T04:30:24;19.50;77.10
76263;DHT22;65080;50.908;6.916;2023-07-31T04:32:52;19.50;77.10
76263;DHT22;65080;50.908;6.916;2023-07-31T04:35:22;19.50;77.00
76263;DHT22;65080;50.908;6.916;2023-07-31T04:37:50;19.50;76.70
76263;DHT22;65080;50.908;6.916;2023-07-31T04:40:19;19.50;76.10
76263;DHT22;65080;50.908;6.916;2023-07-31T04:42:47;19.50;76.10
76263;DHT22;65080;50.908;6.916;2023-07-31T04:45:16;19.50;75.80
76263;DHT22;65080;50.908;6.916;2023-07-31T04:47:44;19.50;75.60
76263;DHT22;65080;50.908;6.916;2023-07-31T04:50:12;19.50;75.40
76263;DHT22;65080;50.908;6.916;2023-07-31T04:52:42;19.60;75.40
76263;DHT22;65080;50.908;6.916;2023-07-31T04:55:10;19.60;75.40
76263;DHT22;65080;50.908;6.916;2023-07-31T04:57:38;19.60;74.90
76263;DHT22;65080;50.908;6.916;2023-07-31T05:00:07;19.60;74.80
76263;DHT22;65080;50.908;6.916;2023-07-31T05:02:36;19.60;74.70
76263;DHT22;65080;50.908;6.916;2023-07-31T05:05:05;19.70;74.60
76263;DHT22;65080;50.908;6.916;2023-07-31T05:07:33;19.70;74.30
76263;DHT22;65080;50.908;6.916;2023-07-31T05:10:03;19.70;74.30
76263;DHT22;65080;50.908;6.916;2023-07-31T05:12:32;19.80;74.30
76263;DHT22;65080;50.908;6.916;2023-07-31T05:15:00;19.80;74.00
76263;DHT22;65080;50.908;6.916;2023-07-31T05:17:28;19.80;73.70
76263;DHT22;65080;50.908;6.916;2023-07-31T05:19:57;19.90;73.60
76263;DHT22;65080;50.908;6.916;2023-07-31T05:22:25;19.90;73.60
76263;DHT22;65080;50.908;6.916;2023-07-31T05:24:53;19.90;73.30
76263;DHT22;65080;50.908;6.916;2023-07-31T05:27:23;19.90;73.20
76263;DHT22;65080;50.908;6.916;2023-07-31T05:29:51;20.00;73.10
76263;DHT22;65080;50.908;6.916;2023-07-31T05:32:20;20.00;73.00
76263;DHT22;65080;50.908;6.916;2023-07-31T05:34:50;20.00;72.80
76263;DHT22;65080;50.908;6.916;2023-07-31T05:37:19;20.10;72.70
76263;DHT22;65080;50.908;6.916;2023-07-31T05:39:47;20.10;72.60
76263;DHT22;65080;50.908;6.916;2023-07-31T05:42:15;20.10;72.70
76263;DHT22;65080;50.908;6.916;2023-07-31T05:44:45;20.20;72.40
76263;DHT22;65080;50.908;6.916;2023-07-31T05:47:14;20.20;72.20
76263;DHT22;65080;50.908;6.916;2023-07-31T05:49:42;20.20;72.10
76263;DHT22;65080;50.908;6.916;2023-07-31T05:52:11;20.30;72.10
76263;DHT22;65080;50.908;6.916;2023-07-31T05:54:39;20.30;72.00
76263;DHT22;65080;50.908;6.916;2023-07-31T05:57:07;20.30;71.80
76263;DHT22;65080;50.908;6.916;2023-07-31T05:59:35;20.30;71.80
76263;DHT22;65080;50.908;6.916;2023-07-31T06:02:06;20.30;71.80
76263;DHT22;65080;50.908;6.916;2023-07-31T06:04:34;20.30;71.80
76263;DHT22;65080;50.908;6.916;2023-07-31T06:07:03;20.20;71.90
76263;DHT22;65080;50.908;6.916;2023-07-31T06:09:31;20.20;72.30
76263;DHT22;65080;50.908;6.916;2023-07-31T06:12:00;20.10;72.70
76263;DHT22;65080;50.908;6.916;2023-07-31T06:14:28;20.10;73.30
76263;DHT22;65080;50.908;6.916;2023-07-31T06:16:56;20.10;73.50
76263;DHT22;65080;50.908;6.916;2023-07-31T06:19:26;20.10;73.90
76263;DHT22;65080;50.908;6.916;2023-07-31T06:21:54;20.00;74.10
76263;DHT22;65080;50.908;6.916;2023-07-31T06:24:23;19.90;74.30
76263;DHT22;65080;50.908;6.916;2023-07-31T06:26:51;19.90;74.80
76263;DHT22;65080;50.908;6.916;2023-07-31T06:29:20;19.80;74.80
76263;DHT22;65080;50.908;6.916;2023-07-31T06:31:49;19.70;75.70
76263;DHT22;65080;50.908;6.916;2023-07-31T06:34:17;19.60;75.60
76263;DHT22;65080;50.908;6.916;2023-07-31T06:36:47;19.60;76.30
76263;DHT22;65080;50.908;6.916;2023-07-31T06:39:15;19.70;76.90
76263;DHT22;65080;50.908;6.916;2023-07-31T06:41:44;19.70;77.10
76263;DHT22;65080;50.908;6.916;2023-07-31T06:44:12;19.70;77.00
76263;DHT22;65080;50.908;6.916;2023-07-31T06:46:40;19.70;77.40
76263;DHT22;65080;50.908;6.916;2023-07-31T06:49:09;19.70;77.70
76263;DHT22;65080;50.908;6.916;2023-07-31T06:51:37;19.70;78.00
76263;DHT22;65080;50.908;6.916;2023-07-31T06:54:08;19.70;78.20
76263;DHT22;65080;50.908;6.916;2023-07-31T06:56:36;19.80;78.50
76263;DHT22;65080;50.908;6.916;2023-07-31T06:59:07;19.80;78.60
76263;DHT22;65080;50.908;6.916;2023-07-31T07:01:35;19.90;78.90
76263;DHT22;65080;50.908;6.916;2023-07-31T07:04:04;19.90;79.00
76263;DHT22;65080;50.908;6.916;2023-07-31T07:06:32;20.00;79.40
76263;DHT22;65080;50.908;6.916;2023-07-31T07:09:01;20.00;79.30
76263;DHT22;65080;50.908;6.916;2023-07-31T07:11:31;20.10;79.40
76263;DHT22;65080;50.908;6.916;2023-07-31T07:14:00;20.10;79.30
76263;DHT22;65080;50.908;6.916;2023-07-31T07:16:28;20.10;79.40
76263;DHT22;65080;50.908;6.916;2023-07-31T07:18:57;20.10;79.50
76263;DHT22;65080;50.908;6.916;2023-07-31T07:21:31;20.20;79.60
76263;DHT22;65080;50.908;6.916;2023-07-31T07:23:59;20.10;79.40
76263;DHT22;65080;50.908;6.916;2023-07-31T07:26:28;20.20;79.50
76263;DHT22;65080;50.908;6.916;2023-07-31T07:28:58;20.20;79.50
76263;DHT22;65080;50.908;6.916;2023-07-31T07:31:28;20.20;79.50
76263;DHT22;65080;50.908;6.916;2023-07-31T07:33:57;20.20;79.40
76263;DHT22;65080;50.908;6.916;2023-07-31T07:36:27;20.20;79.50
76263;DHT22;65080;50.908;6.916;2023-07-31T07:38:55;20.20;79.70
76263;DHT22;65080;50.908;6.916;2023-07-31T07:41:24;20.20;79.70
76263;DHT22;65080;50.908;6.916;2023-07-31T07:43:52;20.20;79.80
76263;DHT22;65080;50.908;6.916;2023-07-31T07:46:22;20.10;79.70
76263;DHT22;65080;50.908;6.916;2023-07-31T07:48:51;20.10;79.40
76263;DHT22;65080;50.908;6.916;2023-07-31T07:51:19;20.10;79.20
76263;DHT22;65080;50.908;6.916;2023-07-31T07:53:47;20.10;78.90
76263;DHT22;65080;50.908;6.916;2023-07-31T07:56:15;20.10;79.00
76263;DHT22;65080;50.908;6.916;2023-07-31T07:58:44;20.10;79.20
76263;DHT22;65080;50.908;6.916;2023-07-31T08:01:12;19.90;79.00
76263;DHT22;65080;50.908;6.916;2023-07-31T08:03:42;19.90;79.20
76263;DHT22;65080;50.908;6.916;2023-07-31T08:06:11;19.80;79.10
76263;DHT22;65080;50.908;6.916;2023-07-31T08:08:39;19.60;79.90
76263;DHT22;65080;50.908;6.916;2023-07-31T08:11:08;19.50;80.70
76263;DHT22;65080;50.908;6.916;2023-07-31T08:13:36;19.40;81.20
76263;DHT22;65080;50.908;6.916;2023-07-31T08:16:05;19.30;81.70
76263;DHT22;65080;50.908;6.916;2023-07-31T08:18:33;19.20;81.90
76263;DHT22;65080;50.908;6.916;2023-07-31T08:21:03;19.10;82.40
76263;DHT22;65080;50.908;6.916;2023-07-31T08:23:31;19.10;83.10
76263;DHT22;65080;50.908;6.916;2023-07-31T08:25:59;19.10;83.60
76263;DHT22;65080;50.908;6.916;2023-07-31T08:28:28;19.10;84.10
76263;DHT22;65080;50.908;6.916;2023-07-31T08:30:56;19.20;84.60
76263;DHT22;65080;50.908;6.916;2023-07-31T08:33:25;19.20;84.90
76263;DHT22;65080;50.908;6.916;2023-07-31T08:35:53;19.30;85.30
76263;DHT22;65080;50.908;6.916;2023-07-31T08:38:23;19.40;85.60
76263;DHT22;65080;50.908;6.916;2023-07-31T08:40:52;19.40;85.60
76263;DHT22;65080;50.908;6.916;2023-07-31T08:43:25;19.50;85.90
76263;DHT22;65080;50.908;6.916;2023-07-31T08:45:53;19.50;85.70
76263;DHT22;65080;50.908;6.916;2023-07-31T08:48:23;19.60;85.80
76263;DHT22;65080;50.908;6.916;2023-07-31T08:50:52;19.60;85.90
76263;DHT22;65080;50.908;6.916;2023-07-31T08:53:20;19.60;86.10
76263;DHT22;65080;50.908;6.916;2023-07-31T08:55:52;19.60;86.30
76263;DHT22;65080;50.908;6.916;2023-07-31T08:58:21;19.70;86.60
76263;DHT22;65080;50.908;6.916;2023-07-31T09:00:51;19.70;86.70
76263;DHT22;65080;50.908;6.916;2023-07-31T09:03:23;19.70;86.60
76263;DHT22;65080;50.908;6.916;2023-07-31T09:05:53;19.70;86.70
76263;DHT22;65080;50.908;6.916;2023-07-31T09:08:23;19.70;86.60
76263;DHT22;65080;50.908;6.916;2023-07-31T09:10:54;19.60;86.40
76263;DHT22;65080;50.908;6.916;2023-07-31T09:13:28;19.70;86.40
76263;DHT22;65080;50.908;6.916;2023-07-31T09:15:58;19.60;86.20
76263;DHT22;65080;50.908;6.916;2023-07-31T09:18:26;19.60;86.30
76263;DHT22;65080;50.908;6.916;2023-07-31T09:21:02;19.60;86.20
76263;DHT22;65080;50.908;6.916;2023-07-31T09:23:41;19.50;85.70
76263;DHT22;65080;50.908;6.916;2023-07-31T09:26:11;19.30;85.70
76263;DHT22;65080;50.908;6.916;2023-07-31T09:28:56;19.20;86.40
76263;DHT22;65080;50.908;6.916;2023-07-31T09:31:39;19.20;86.60
76263;DHT22;65080;50.908;6.916;2023-07-31T09:34:08;19.20;87.30
76263;DHT22;65080;50.908;6.916;2023-07-31T09:36:40;19.30;87.70
76263;DHT22;65080;50.908;6.916;2023-07-31T09:39:10;19.40;88.00
76263;DHT22;65080;50.908;6.916;2023-07-31T09:41:42;19.50;87.90
76263;DHT22;65080;50.908;6.916;2023-07-31T09:44:11;19.60;87.40
76263;DHT22;65080;50.908;6.916;2023-07-31T09:46:39;19.60;87.40
76263;DHT22;65080;50.908;6.916;2023-07-31T09:49:08;19.70;87.40
76263;DHT22;65080;50.908;6.916;2023-07-31T09:51:37;19.70;86.90
76263;DHT22;65080;50.908;6.916;2023-07-31T09:54:09;19.80;86.80
76263;DHT22;65080;50.908;6.916;2023-07-31T09:56:42;19.90;86.70
76263;DHT22;65080;50.908;6.916;2023-07-31T09:59:14;19.90;86.00
76263;DHT22;65080;50.908;6.916;2023-07-31T10:01:43;20.00;85.50
76263;DHT22;65080;50.908;6.916;2023-07-31T10:04:13;20.00;84.80
76263;DHT22;65080;50.908;6.916;2023-07-31T10:06:43;20.00;84.50
76263;DHT22;65080;50.908;6.916;2023-07-31T10:09:16;20.10;84.40
76263;DHT22;65080;50.908;6.916;2023-07-31T10:11:53;20.10;84.10
76263;DHT22;65080;50.908;6.916;2023-07-31T10:14:24;20.30;83.30
76263;DHT22;65080;50.908;6.916;2023-07-31T10:16:53;20.40;82.70
76263;DHT22;65080;50.908;6.916;2023-07-31T10:19:22;20.40;82.20
76263;DHT22;65080;50.908;6.916;2023-07-31T10:21:51;20.50;81.90
76263;DHT22;65080;50.908;6.916;2023-07-31T10:24:20;20.60;81.00
76263;DHT22;65080;50.908;6.916;2023-07-31T10:26:51;20.60;80.30
76263;DHT22;65080;50.908;6.916;2023-07-31T10:29:20;20.70;80.10
76263;DHT22;65080;50.908;6.916;2023-07-31T10:31:50;20.60;79.60
76263;DHT22;65080;50.908;6.916;2023-07-31T10:34:19;20.80;79.00
76263;DHT22;65080;50.908;6.916;2023-07-31T10:36:47;20.80;78.30
76263;DHT22;65080;50.908;6.916;2023-07-31T10:39:35;20.80;77.50
76263;DHT22;65080;50.908;6.916;2023-07-31T10:42:13;20.90;76.40
76263;DHT22;65080;50.908;6.916;2023-07-31T10:44:44;20.90;75.90
76263;DHT22;65080;50.908;6.916;2023-07-31T10:47:15;20.90;75.60
76263;DHT22;65080;50.908;6.916;2023-07-31T10:49:45;21.00;75.20
76263;DHT22;65080;50.908;6.916;2023-07-31T10:52:19;21.00;74.90
76263;DHT22;65080;50.908;6.916;2023-07-31T10:55:13;21.00;74.40
76263;DHT22;65080;50.908;6.916;2023-07-31T10:57:47;21.10;74.20
76263;DHT22;65080;50.908;6.916;2023-07-31T11:00:20;21.10;73.70
76263;DHT22;65080;50.908;6.916;2023-07-31T11:03:00;21.10;73.30
76263;DHT22;65080;50.908;6.916;2023-07-31T11:08:23;21.10;73.80
76263;DHT22;65080;50.908;6.916;2023-07-31T11:11:05;21.00;74.00
76263;DHT22;65080;50.908;6.916;2023-07-31T11:13:41;20.90;74.60
76263;DHT22;65080;50.908;6.916;2023-07-31T11:16:10;21.00;74.90
76263;DHT22;65080;50.908;6.916;2023-07-31T11:18:40;20.80;74.70
76263;DHT22;65080;50.908;6.916;2023-07-31T11:21:12;20.80;74.70
76263;DHT22;65080;50.908;6.916;2023-07-31T11:23:41;20.70;75.20
76263;DHT22;65080;50.908;6.916;2023-07-31T11:26:09;20.60;75.60
76263;DHT22;65080;50.908;6.916;2023-07-31T11:28:40;20.60;75.90
76263;DHT22;65080;50.908;6.916;2023-07-31T11:31:10;20.60;75.80
76263;DHT22;65080;50.908;6.916;2023-07-31T11:33:38;20.70;76.10
76263;DHT22;65080;50.908;6.916;2023-07-31T11:36:09;20.80;76.00
76263;DHT22;65080;50.908;6.916;2023-07-31T11:38:41;21.00;75.50
76263;DHT22;65080;50.908;6.916;2023-07-31T11:41:10;21.00;74.90
76263;DHT22;65080;50.908;6.916;2023-07-31T11:43:39;21.20;74.60
76263;DHT22;65080;50.908;6.916;2023-07-31T11:46:09;21.30;73.90
76263;DHT22;65080;50.908;6.916;2023-07-31T11:48:38;21.40;73.70
76263;DHT22;65080;50.908;6.916;2023-07-31T11:51:09;21.50;73.40
76263;DHT22;65080;50.908;6.916;2023-07-31T11:53:42;21.60;73.10
76263;DHT22;65080;50.908;6.916;2023-07-31T11:56:14;21.70;72.80
76263;DHT22;65080;50.908;6.916;2023-07-31T11:58:47;21.80;72.50
76263;DHT22;65080;50.908;6.916;2023-07-31T12:01:19;21.90;72.10
76263;DHT22;65080;50.908;6.916;2023-07-31T12:03:48;21.90;71.50
76263;DHT22;65080;50.908;6.916;2023-07-31T12:06:17;22.00;71.20
76263;DHT22;65080;50.908;6.916;2023-07-31T12:08:47;21.90;70.90
76263;DHT22;65080;50.908;6.916;2023-07-31T12:11:16;21.90;70.90
76263;DHT22;65080;50.908;6.916;2023-07-31T12:13:46;21.90;70.70
76263;DHT22;65080;50.908;6.916;2023-07-31T12:16:14;21.90;70.50
76263;DHT22;65080;50.908;6.916;2023-07-31T12:18:43;21.80;70.50
76263;DHT22;65080;50.908;6.916;2023-07-31T12:21:11;21.80;70.60
76263;DHT22;65080;50.908;6.916;2023-07-31T12:23:40;21.90;70.60
76263;DHT22;65080;50.908;6.916;2023-07-31T12:26:12;21.80;70.30
76263;DHT22;65080;50.908;6.916;2023-07-31T12:28:42;21.80;70.30
76263;DHT22;65080;50.908;6.916;2023-07-31T12:31:14;21.80;70.30
76263;DHT22;65080;50.908;6.916;2023-07-31T12:33:44;21.90;70.30
76263;DHT22;65080;50.908;6.916;2023-07-31T12:36:14;21.90;70.20
76263;DHT22;65080;50.908;6.916;2023-07-31T12:38:43;21.90;70.10
76263;DHT22;65080;50.908;6.916;2023-07-31T12:41:12;21.90;69.90
76263;DHT22;65080;50.908;6.916;2023-07-31T12:43:41;22.00;69.80
76263;DHT22;65080;50.908;6.916;2023-07-31T12:46:11;22.00;69.60
76263;DHT22;65080;50.908;6.916;2023-07-31T12:48:40;22.00;69.60
76263;DHT22;65080;50.908;6.916;2023-07-31T12:51:08;22.00;69.60
76263;DHT22;65080;50.908;6.916;2023-07-31T12:53:37;21.90;69.50
76263;DHT22;65080;50.908;6.916;2023-07-31T12:56:05;22.00;69.60
76263;DHT22;65080;50.908;6.916;2023-07-31T12:58:33;22.00;69.50
76263;DHT22;65080;50.908;6.916;2023-07-31T13:01:01;21.90;69.20
76263;DHT22;65080;50.908;6.916;2023-07-31T13:03:31;21.90;69.20
76263;DHT22;65080;50.908;6.916;2023-07-31T13:05:59;21.90;69.20
76263;DHT22;65080;50.908;6.916;2023-07-31T13:08:27;22.00;69.20
76263;DHT22;65080;50.908;6.916;2023-07-31T13:10:56;21.90;68.90
76263;DHT22;65080;50.908;6.916;2023-07-31T13:13:24;22.00;68.90
76263;DHT22;65080;50.908;6.916;2023-07-31T13:15:52;22.00;68.90
76263;DHT22;65080;50.908;6.916;2023-07-31T13:18:21;22.10;68.80
76263;DHT22;65080;50.908;6.916;2023-07-31T13:20:51;22.10;68.80
76263;DHT22;65080;50.908;6.916;2023-07-31T13:23:19;22.10;68.70
76263;DHT22;65080;50.908;6.916;2023-07-31T13:25:47;22.10;68.70
76263;DHT22;65080;50.908;6.916;2023-07-31T13:28:15;22.10;68.60
76263;DHT22;65080;50.908;6.916;2023-07-31T13:30:44;22.10;68.60
76263;DHT22;65080;50.908;6.916;2023-07-31T13:33:13;22.10;68.50
76263;DHT22;65080;50.908;6.916;2023-07-31T13:36:02;22.20;68.30
76263;DHT22;65080;50.908;6.916;2023-07-31T13:38:30;22.20;67.80
76263;DHT22;65080;50.908;6.916;2023-07-31T13:40:59;22.30;67.60
76263;DHT22;65080;50.908;6.916;2023-07-31T13:43:27;22.30;67.40
76263;DHT22;65080;50.908;6.916;2023-07-31T13:45:55;22.40;67.50
76263;DHT22;65080;50.908;6.916;2023-07-31T13:48:24;22.50;67.40
76263;DHT22;65080;50.908;6.916;2023-07-31T13:50:52;22.50;67.20
76263;DHT22;65080;50.908;6.916;2023-07-31T13:53:22;22.60;67.20
76263;DHT22;65080;50.908;6.916;2023-07-31T13:55:50;22.60;67.20
76263;DHT22;65080;50.908;6.916;2023-07-31T13:58:18;22.80;67.50
76263;DHT22;65080;50.908;6.916;2023-07-31T14:00:46;23.10;66.90
76263;DHT22;65080;50.908;6.916;2023-07-31T14:03:14;23.50;66.10
76263;DHT22;65080;50.908;6.916;2023-07-31T14:05:43;23.90;65.50
76263;DHT22;65080;50.908;6.916;2023-07-31T14:08:11;24.20;64.40
76263;DHT22;65080;50.908;6.916;2023-07-31T14:10:41;24.30;63.50
76263;DHT22;65080;50.908;6.916;2023-07-31T14:13:09;24.30;63.00
76263;DHT22;65080;50.908;6.916;2023-07-31T14:15:39;24.30;62.80
76263;DHT22;65080;50.908;6.916;2023-07-31T14:18:07;24.10;62.30
76263;DHT22;65080;50.908;6.916;2023-07-31T14:20:36;23.90;62.00
76263;DHT22;65080;50.908;6.916;2023-07-31T14:23:04;23.70;61.90
76263;DHT22;65080;50.908;6.916;2023-07-31T14:25:33;23.50;62.30
76263;DHT22;65080;50.908;6.916;2023-07-31T14:28:03;23.40;62.60
76263;DHT22;65080;50.908;6.916;2023-07-31T14:30:33;23.30;62.70
76263;DHT22;65080;50.908;6.916;2023-07-31T14:33:01;23.30;62.80
76263;DHT22;65080;50.908;6.916;2023-07-31T14:35:29;23.20;62.70
76263;DHT22;65080;50.908;6.916;2023-07-31T14:37:57;23.10;62.70
76263;DHT22;65080;50.908;6.916;2023-07-31T14:40:26;23.00;62.80
76263;DHT22;65080;50.908;6.916;2023-07-31T14:42:54;22.90;62.80
76263;DHT22;65080;50.908;6.916;2023-07-31T14:45:24;22.90;62.90
76263;DHT22;65080;50.908;6.916;2023-07-31T14:47:52;22.90;62.80
76263;DHT22;65080;50.908;6.916;2023-07-31T14:50:20;22.80;62.80
76263;DHT22;65080;50.908;6.916;2023-07-31T14:52:50;22.80;62.90
76263;DHT22;65080;50.908;6.916;2023-07-31T14:55:18;22.80;62.80
76263;DHT22;65080;50.908;6.916;2023-07-31T14:57:47;22.70;62.70
76263;DHT22;65080;50.908;6.916;2023-07-31T15:00:15;22.70;62.80
76263;DHT22;65080;50.908;6.916;2023-07-31T15:02:45;22.70;62.90
76263;DHT22;65080;50.908;6.916;2023-07-31T15:05:13;22.60;62.80
76263;DHT22;65080;50.908;6.916;2023-07-31T15:07:41;22.60;62.70
76263;DHT22;65080;50.908;6.916;2023-07-31T15:10:09;22.50;62.60
76263;DHT22;65080;50.908;6.916;2023-07-31T15:12:40;22.50;62.80
76263;DHT22;65080;50.908;6.916;2023-07-31T15:15:09;22.50;62.70
76263;DHT22;65080;50.908;6.916;2023-07-31T15:17:37;22.40;62.80
76263;DHT22;65080;50.908;6.916;2023-07-31T15:20:09;22.40;62.80
76263;DHT22;65080;50.908;6.916;2023-07-31T15:22:37;22.40;62.90
76263;DHT22;65080;50.908;6.916;2023-07-31T15:25:06;22.40;63.00
76263;DHT22;65080;50.908;6.916;2023-07-31T15:27:35;22.30;62.80
76263;DHT22;65080;50.908;6.916;2023-07-31T15:30:04;22.30;62.90
76263;DHT22;65080;50.908;6.916;2023-07-31T15:32:32;22.30;62.90
76263;DHT22;65080;50.908;6.916;2023-07-31T15:35:01;22.30;62.90
76263;DHT22;65080;50.908;6.916;2023-07-31T15:37:30;22.20;63.70
76263;DHT22;65080;50.908;6.916;2023-07-31T15:39:58;22.20;63.10
76263;DHT22;65080;50.908;6.916;2023-07-31T15:42:27;22.20;63.80
76263;DHT22;65080;50.908;6.916;2023-07-31T15:44:55;22.10;63.60
76263;DHT22;65080;50.908;6.916;2023-07-31T15:47:23;22.10;62.90